sensor_id;sensor_type;location;lat;lon;timestamp;temperature;humidity
22908;DHT22;11620;50.050;8.690;2023-03-14T00:02:00;7.90;99.90
22908;DHT22;11620;50.050;8.690;2023-03-14T00:04:47;7.90;99.90
22908;DHT22;11620;50.050;8.690;2023-03-14T00:07:38;7.90;99.90
22908;DHT22;11620;50.050;8.690;2023-03-14T00:10:25;7.90;99.90
22908;DHT22;11620;50.050;8.690;2023-03-14T00:13:11;7.90;99.90
22908;DHT22;11620;50.050;8.690;2023-03-14T00:16:05;8.00;99.90
22908;DHT22;11620;50.050;8.690;2023-03-14T00:18:52;8.00;99.90
22908;DHT22;11620;50.050;8.690;2023-03-14T00:21:38;8.00;99.90
22908;DHT22;11620;50.050;8.690;2023-03-14T00:24:25;8.00;99.90
22908;DHT22;11620;50.050;8.690;2023-03-14T00:27:11;8.10;99.90
22908;DHT22;11620;50.050;8.690;2023-03-14T00:29:57;8.00;99.90
22908;DHT22;11620;50.050;8.690;2023-03-14T00:32:44;8.10;99.90
22908;DHT22;11620;50.050;8.690;2023-03-14T00:35:30;8.10;99.90
22908;DHT22;11620;50.050;8.690;2023-03-14T00:38:16;8.00;99.90
22908;DHT22;11620;50.050;8.690;2023-03-14T00:41:12;8.10;99.90
22908;DHT22;11620;50.050;8.690;2023-03-14T00:43:58;8.10;99.90
22908;DHT22;11620;50.050;8.690;2023-03-14T00:46:44;8.10;99.90
22908;DHT22;11620;50.050;8.690;2023-03-14T00:49:31;8.10;99.90
22908;DHT22;11620;50.050;8.690;2023-03-14T00:52:17;8.20;99.90
22908;DHT22;11620;50.050;8.690;2023-03-14T00:55:04;8.20;99.90
22908;DHT22;11620;50.050;8.690;2023-03-14T00:57:50;8.20;99.90
22908;DHT22;11620;50.050;8.690;2023-03-14T01:00:37;8.20;99.90
22908;DHT22;11620;50.050;8.690;2023-03-14T01:03:23;8.20;99.90
22908;DHT22;11620;50.050;8.690;2023-03-14T01:06:16;8.20;99.90
22908;DHT22;11620;50.050;8.690;2023-03-14T01:09:03;8.10;99.90
22908;DHT22;11620;50.050;8.690;2023-03-14T01:11:49;8.00;99.90
22908;DHT22;11620;50.050;8.690;2023-03-14T01:14:35;8.00;99.90
22908;DHT22;11620;50.050;8.690;2023-03-14T01:17:22;8.00;99.90
22908;DHT22;11620;50.050;8.690;2023-03-14T01:20:11;8.00;99.90
22908;DHT22;11620;50.050;8.690;2023-03-14T01:22:58;8.00;99.90
22908;DHT22;11620;50.050;8.690;2023-03-14T01:25:44;7.90;99.90
22908;DHT22;11620;50.050;8.690;2023-03-14T01:28:31;8.00;99.90
22908;DHT22;11620;50.050;8.690;2023-03-14T01:31:17;8.00;99.90
22908;DHT22;11620;50.050;8.690;2023-03-14T01:34:04;8.00;99.90
22908;DHT22;11620;50.050;8.690;2023-03-14T01:36:50;8.10;99.90
22908;DHT22;11620;50.050;8.690;2023-03-14T01:39:37;8.00;99.90
22908;DHT22;11620;50.050;8.690;2023-03-14T01:42:23;8.10;99.90
22908;DHT22;11620;50.050;8.690;2023-03-14T01:49:03;8.00;99.90
22908;DHT22;11620;50.050;8.690;2023-03-14T01:51:57;8.00;99.90
22908;DHT22;11620;50.050;8.690;2023-03-14T01:54:47;8.00;99.90
22908;DHT22;11620;50.050;8.690;2023-03-14T01:57:41;8.10;99.90
22908;DHT22;11620;50.050;8.690;2023-03-14T02:00:31;8.10;99.90
22908;DHT22;11620;50.050;8.690;2023-03-14T02:03:19;8.10;99.90
22908;DHT22;11620;50.050;8.690;2023-03-14T02:06:08;8.00;99.90
22908;DHT22;11620;50.050;8.690;2023-03-14T02:08:55;8.00;99.90
22908;DHT22;11620;50.050;8.690;2023-03-14T02:11:41;8.00;99.90
22908;DHT22;11620;50.050;8.690;2023-03-14T02:14:32;8.10;99.90
22908;DHT22;11620;50.050;8.690;2023-03-14T02:17:19;8.10;99.90
22908;DHT22;11620;50.050;8.690;2023-03-14T02:20:33;8.10;99.90
22908;DHT22;11620;50.050;8.690;2023-03-14T02:23:36;8.10;99.90
22908;DHT22;11620;50.050;8.690;2023-03-14T02:26:39;8.10;99.90
22908;DHT22;11620;50.050;8.690;2023-03-14T02:29:28;8.20;99.90
22908;DHT22;11620;50.050;8.690;2023-03-14T02:32:16;8.20;99.90
22908;DHT22;11620;50.050;8.690;2023-03-14T02:35:06;8.20;99.90
22908;DHT22;11620;50.050;8.690;2023-03-14T02:38:07;8.20;99.90
22908;DHT22;11620;50.050;8.690;2023-03-14T02:40:56;8.20;99.90
22908;DHT22;11620;50.050;8.690;2023-03-14T02:43:42;8.10;99.90
22908;DHT22;11620;50.050;8.690;2023-03-14T02:46:29;8.10;99.90
22908;DHT22;11620;50.050;8.690;2023-03-14T02:49:16;8.10;99.90
22908;DHT22;11620;50.050;8.690;2023-03-14T02:52:03;8.10;99.90
22908;DHT22;11620;50.050;8.690;2023-03-14T02:54:50;8.20;99.90
22908;DHT22;11620;50.050;8.690;2023-03-14T02:57:36;8.20;99.90
22908;DHT22;11620;50.050;8.690;2023-03-14T03:00:22;8.10;99.90
22908;DHT22;11620;50.050;8.690;2023-03-14T03:03:09;8.10;99.90
22908;DHT22;11620;50.050;8.690;2023-03-14T03:05:56;8.10;99.90
22908;DHT22;11620;50.050;8.690;2023-03-14T03:08:43;8.20;99.90
22908;DHT22;11620;50.050;8.690;2023-03-14T03:11:29;8.10;99.90
22908;DHT22;11620;50.050;8.690;2023-03-14T03:14:15;8.20;99.90
22908;DHT22;11620;50.050;8.690;2023-03-14T03:17:02;8.20;99.90
22908;DHT22;11620;50.050;8.690;2023-03-14T03:19:48;8.10;99.90
22908;DHT22;11620;50.050;8.690;2023-03-14T03:22:35;8.10;99.90
22908;DHT22;11620;50.050;8.690;2023-03-14T03:25:22;8.20;99.90
22908;DHT22;11620;50.050;8.690;2023-03-14T03:28:08;8.20;99.90
22908;DHT22;11620;50.050;8.690;2023-03-14T03:30:54;8.20;99.90
22908;DHT22;11620;50.050;8.690;2023-03-14T03:33:41;8.20;99.90
22908;DHT22;11620;50.050;8.690;2023-03-14T03:36:27;8.20;99.90
22908;DHT22;11620;50.050;8.690;2023-03-14T03:39:13;8.10;99.90
22908;DHT22;11620;50.050;8.690;2023-03-14T03:42:00;8.00;99.90
22908;DHT22;11620;50.050;8.690;2023-03-14T03:44:46;8.10;99.90
22908;DHT22;11620;50.050;8.690;2023-03-14T03:47:33;8.10;99.90
22908;DHT22;11620;50.050;8.690;2023-03-14T03:50:19;8.10;99.90
22908;DHT22;11620;50.050;8.690;2023-03-14T03:53:06;8.00;99.90
22908;DHT22;11620;50.050;8.690;2023-03-14T03:55:52;8.00;99.90
22908;DHT22;11620;50.050;8.690;2023-03-14T03:58:38;8.00;99.90
22908;DHT22;11620;50.050;8.690;2023-03-14T04:01:25;8.10;99.90
22908;DHT22;11620;50.050;8.690;2023-03-14T04:04:11;8.00;99.90
22908;DHT22;11620;50.050;8.690;2023-03-14T04:06:57;8.00;99.90
22908;DHT22;11620;50.050;8.690;2023-03-14T04:09:44;8.00;99.90
22908;DHT22;11620;50.050;8.690;2023-03-14T04:12:30;8.00;99.90
22908;DHT22;11620;50.050;8.690;2023-03-14T04:15:16;8.10;99.90
22908;DHT22;11620;50.050;8.690;2023-03-14T04:18:03;8.10;99.90
22908;DHT22;11620;50.050;8.690;2023-03-14T04:20:53;8.00;99.90
22908;DHT22;11620;50.050;8.690;2023-03-14T04:23:39;8.00;99.90
22908;DHT22;11620;50.050;8.690;2023-03-14T04:26:26;8.10;99.90
22908;DHT22;11620;50.050;8.690;2023-03-14T04:29:12;8.10;99.90
22908;DHT22;11620;50.050;8.690;2023-03-14T04:31:59;8.10;99.90
22908;DHT22;11620;50.050;8.690;2023-03-14T04:34:45;8.00;99.90
22908;DHT22;11620;50.050;8.690;2023-03-14T04:37:31;8.10;99.90
22908;DHT22;11620;50.050;8.690;2023-03-14T04:40:18;8.20;99.90
22908;DHT22;11620;50.050;8.690;2023-03-14T04:43:04;8.10;99.90
22908;DHT22;11620;50.050;8.690;2023-03-14T04:45:53;8.20;99.90
22908;DHT22;11620;50.050;8.690;2023-03-14T04:48:40;8.20;99.90
22908;DHT22;11620;50.050;8.690;2023-03-14T04:51:26;8.20;99.90
22908;DHT22;11620;50.050;8.690;2023-03-14T04:54:13;8.10;99.90
22908;DHT22;11620;50.050;8.690;2023-03-14T04:56:59;8.20;99.90
22908;DHT22;11620;50.050;8.690;2023-03-14T04:59:45;8.20;99.90
22908;DHT22;11620;50.050;8.690;2023-03-14T05:02:32;8.20;99.90
22908;DHT22;11620;50.050;8.690;2023-03-14T05:05:19;8.20;99.90
22908;DHT22;11620;50.050;8.690;2023-03-14T05:08:05;8.20;99.90
22908;DHT22;11620;50.050;8.690;2023-03-14T05:10:55;8.20;99.90
22908;DHT22;11620;50.050;8.690;2023-03-14T05:13:42;8.20;99.90
22908;DHT22;11620;50.050;8.690;2023-03-14T05:16:31;8.20;99.90
22908;DHT22;11620;50.050;8.690;2023-03-14T05:19:18;8.20;99.90
22908;DHT22;11620;50.050;8.690;2023-03-14T05:22:04;8.20;99.90
22908;DHT22;11620;50.050;8.690;2023-03-14T05:24:50;8.20;99.90
22908;DHT22;11620;50.050;8.690;2023-03-14T05:27:37;8.30;99.90
22908;DHT22;11620;50.050;8.690;2023-03-14T05:30:23;8.10;99.90
22908;DHT22;11620;50.050;8.690;2023-03-14T05:33:09;8.20;99.90
22908;DHT22;11620;50.050;8.690;2023-03-14T05:35:57;8.10;99.90
22908;DHT22;11620;50.050;8.690;2023-03-14T05:38:43;8.20;99.90
22908;DHT22;11620;50.050;8.690;2023-03-14T05:41:29;8.20;99.90
22908;DHT22;11620;50.050;8.690;2023-03-14T05:44:16;8.20;99.90
22908;DHT22;11620;50.050;8.690;2023-03-14T05:47:02;8.20;99.90
22908;DHT22;11620;50.050;8.690;2023-03-14T05:49:48;8.20;99.90
22908;DHT22;11620;50.050;8.690;2023-03-14T05:52:35;8.10;99.90
22908;DHT22;11620;50.050;8.690;2023-03-14T05:55:21;8.10;99.90
22908;DHT22;11620;50.050;8.690;2023-03-14T05:58:07;8.10;99.90
22908;DHT22;11620;50.050;8.690;2023-03-14T06:00:54;8.20;99.90
22908;DHT22;11620;50.050;8.690;2023-03-14T06:03:40;8.20;99.90
22908;DHT22;11620;50.050;8.690;2023-03-14T06:06:26;8.20;99.90
22908;DHT22;11620;50.050;8.690;2023-03-14T06:09:13;8.10;99.90
22908;DHT22;11620;50.050;8.690;2023-03-14T06:11:59;8.10;99.90
22908;DHT22;11620;50.050;8.690;2023-03-14T06:14:45;8.10;99.90
22908;DHT22;11620;50.050;8.690;2023-03-14T06:17:32;8.10;99.90
22908;DHT22;11620;50.050;8.690;2023-03-14T06:20:18;8.10;99.90
22908;DHT22;11620;50.050;8.690;2023-03-14T06:23:05;8.10;99.90
22908;DHT22;11620;50.050;8.690;2023-03-14T06:25:52;8.20;99.90
22908;DHT22;11620;50.050;8.690;2023-03-14T06:28:39;8.20;99.90
22908;DHT22;11620;50.050;8.690;2023-03-14T06:31:25;8.10;99.90
22908;DHT22;11620;50.050;8.690;2023-03-14T06:34:11;8.10;99.90
22908;DHT22;11620;50.050;8.690;2023-03-14T06:36:58;8.20;99.90
22908;DHT22;11620;50.050;8.690;2023-03-14T06:39:44;8.10;99.90
22908;DHT22;11620;50.050;8.690;2023-03-14T06:42:30;8.10;99.90
22908;DHT22;11620;50.050;8.690;2023-03-14T06:45:17;8.10;99.90
22908;DHT22;11620;50.050;8.690;2023-03-14T06:48:03;8.10;99.90
22908;DHT22;11620;50.050;8.690;2023-03-14T06:50:50;8.20;99.90
22908;DHT22;11620;50.050;8.690;2023-03-14T06:53:36;8.10;99.90
22908;DHT22;11620;50.050;8.690;2023-03-14T06:56:22;8.20;99.90
22908;DHT22;11620;50.050;8.690;2023-03-14T06:59:08;8.10;99.90
22908;DHT22;11620;50.050;8.690;2023-03-14T07:01:55;8.10;99.90
22908;DHT22;11620;50.050;8.690;2023-03-14T07:04:41;8.20;99.90
22908;DHT22;11620;50.050;8.690;2023-03-14T07:07:28;8.10;99.90
22908;DHT22;11620;50.050;8.690;2023-03-14T07:10:14;8.10;99.90
22908;DHT22;11620;50.050;8.690;2023-03-14T07:13:00;8.10;99.90
22908;DHT22;11620;50.050;8.690;2023-03-14T07:15:47;8.20;99.90
22908;DHT22;11620;50.050;8.690;2023-03-14T07:18:33;8.20;99.90
22908;DHT22;11620;50.050;8.690;2023-03-14T07:21:19;8.10;99.90
22908;DHT22;11620;50.050;8.690;2023-03-14T07:24:06;8.10;99.90
22908;DHT22;11620;50.050;8.690;2023-03-14T07:26:52;8.20;99.90
22908;DHT22;11620;50.050;8.690;2023-03-14T07:29:38;8.20;99.90
22908;DHT22;11620;50.050;8.690;2023-03-14T07:32:28;8.20;99.90
22908;DHT22;11620;50.050;8.690;2023-03-14T07:35:14;8.20;99.90
22908;DHT22;11620;50.050;8.690;2023-03-14T07:38:00;8.10;99.90
22908;DHT22;11620;50.050;8.690;2023-03-14T07:40:47;8.20;99.90
22908;DHT22;11620;50.050;8.690;2023-03-14T07:43:33;8.20;99.90
22908;DHT22;11620;50.050;8.690;2023-03-14T07:46:20;8.20;99.90
22908;DHT22;11620;50.050;8.690;2023-03-14T07:49:06;8.20;99.90
22908;DHT22;11620;50.050;8.690;2023-03-14T07:51:53;8.20;99.90
22908;DHT22;11620;50.050;8.690;2023-03-14T07:54:39;8.20;99.90
22908;DHT22;11620;50.050;8.690;2023-03-14T07:57:25;8.20;99.90
22908;DHT22;11620;50.050;8.690;2023-03-14T08:00:12;8.10;99.90
22908;DHT22;11620;50.050;8.690;2023-03-14T08:03:00;8.20;99.90
22908;DHT22;11620;50.050;8.690;2023-03-14T08:05:50;8.20;99.90
22908;DHT22;11620;50.050;8.690;2023-03-14T08:08:36;8.30;99.90
22908;DHT22;11620;50.050;8.690;2023-03-14T08:11:23;8.20;99.90
22908;DHT22;11620;50.050;8.690;2023-03-14T08:14:09;8.20;99.90
22908;DHT22;11620;50.050;8.690;2023-03-14T08:16:57;8.30;99.90
22908;DHT22;11620;50.050;8.690;2023-03-14T08:19:43;8.30;99.90
22908;DHT22;11620;50.050;8.690;2023-03-14T08:22:29;8.40;99.90
22908;DHT22;11620;50.050;8.690;2023-03-14T08:25:16;8.30;99.90
22908;DHT22;11620;50.050;8.690;2023-03-14T08:28:03;8.30;99.90
22908;DHT22;11620;50.050;8.690;2023-03-14T08:30:50;8.30;99.90
22908;DHT22;11620;50.050;8.690;2023-03-14T08:33:36;8.30;99.90
22908;DHT22;11620;50.050;8.690;2023-03-14T08:36:22;8.40;99.90
22908;DHT22;11620;50.050;8.690;2023-03-14T08:39:09;8.50;99.90
22908;DHT22;11620;50.050;8.690;2023-03-14T08:41:57;8.60;99.90
22908;DHT22;11620;50.050;8.690;2023-03-14T08:44:44;8.60;99.90
22908;DHT22;11620;50.050;8.690;2023-03-14T08:47:30;8.60;99.90
22908;DHT22;11620;50.050;8.690;2023-03-14T08:50:17;8.60;99.90
22908;DHT22;11620;50.050;8.690;2023-03-14T08:53:03;8.60;99.90
22908;DHT22;11620;50.050;8.690;2023-03-14T08:55:54;8.80;99.90
22908;DHT22;11620;50.050;8.690;2023-03-14T08:58:40;9.00;99.90
22908;DHT22;11620;50.050;8.690;2023-03-14T09:01:27;9.10;99.90
22908;DHT22;11620;50.050;8.690;2023-03-14T09:04:13;9.20;99.90
22908;DHT22;11620;50.050;8.690;2023-03-14T09:07:00;9.20;99.90
22908;DHT22;11620;50.050;8.690;2023-03-14T09:09:46;9.30;99.90
22908;DHT22;11620;50.050;8.690;2023-03-14T09:12:33;9.40;99.90
22908;DHT22;11620;50.050;8.690;2023-03-14T09:15:19;9.50;99.90
22908;DHT22;11620;50.050;8.690;2023-03-14T09:18:06;9.70;99.90
22908;DHT22;11620;50.050;8.690;2023-03-14T09:20:52;9.70;99.90
22908;DHT22;11620;50.050;8.690;2023-03-14T09:23:38;9.70;99.90
22908;DHT22;11620;50.050;8.690;2023-03-14T09:26:25;9.70;99.90
22908;DHT22;11620;50.050;8.690;2023-03-14T09:29:12;9.60;99.90
22908;DHT22;11620;50.050;8.690;2023-03-14T09:31:59;9.60;99.90
22908;DHT22;11620;50.050;8.690;2023-03-14T09:34:45;9.60;99.90
22908;DHT22;11620;50.050;8.690;2023-03-14T09:37:32;9.50;99.90
22908;DHT22;11620;50.050;8.690;2023-03-14T09:40:19;9.40;99.90
22908;DHT22;11620;50.050;8.690;2023-03-14T09:43:11;9.50;99.90
22908;DHT22;11620;50.050;8.690;2023-03-14T09:45:58;9.50;99.90
22908;DHT22;11620;50.050;8.690;2023-03-14T09:48:46;9.60;99.90
22908;DHT22;11620;50.050;8.690;2023-03-14T09:51:33;9.50;99.90
22908;DHT22;11620;50.050;8.690;2023-03-14T09:57:24;9.40;99.90
22908;DHT22;11620;50.050;8.690;2023-03-14T10:00:16;9.30;99.90
22908;DHT22;11620;50.050;8.690;2023-03-14T10:06:12;9.30;99.90
22908;DHT22;11620;50.050;8.690;2023-03-14T10:08:59;9.50;99.90
22908;DHT22;11620;50.050;8.690;2023-03-14T10:11:46;9.50;99.90
22908;DHT22;11620;50.050;8.690;2023-03-14T10:14:35;9.60;99.90
22908;DHT22;11620;50.050;8.690;2023-03-14T10:17:22;9.50;99.90
22908;DHT22;11620;50.050;8.690;2023-03-14T10:23:28;9.60;99.90
22908;DHT22;11620;50.050;8.690;2023-03-14T10:26:50;9.50;99.90
22908;DHT22;11620;50.050;8.690;2023-03-14T10:29:30;9.50;99.90
22908;DHT22;11620;50.050;8.690;2023-03-14T10:32:20;9.60;99.90
22908;DHT22;11620;50.050;8.690;2023-03-14T10:35:19;9.60;99.90
22908;DHT22;11620;50.050;8.690;2023-03-14T10:38:13;9.50;99.90
22908;DHT22;11620;50.050;8.690;2023-03-14T10:41:00;9.60;99.90
22908;DHT22;11620;50.050;8.690;2023-03-14T10:43:50;9.60;99.90
22908;DHT22;11620;50.050;8.690;2023-03-14T10:46:37;9.50;99.90
22908;DHT22;11620;50.050;8.690;2023-03-14T10:49:28;9.40;99.90
22908;DHT22;11620;50.050;8.690;2023-03-14T10:55:11;9.20;99.90
22908;DHT22;11620;50.050;8.690;2023-03-14T10:57:58;9.20;99.90
22908;DHT22;11620;50.050;8.690;2023-03-14T11:01:30;9.00;99.90
22908;DHT22;11620;50.050;8.690;2023-03-14T11:07:08;8.80;99.90
22908;DHT22;11620;50.050;8.690;2023-03-14T11:16:24;8.80;99.90
22908;DHT22;11620;50.050;8.690;2023-03-14T11:31:27;8.80;99.90
22908;DHT22;11620;50.050;8.690;2023-03-14T11:34:25;8.80;99.90
22908;DHT22;11620;50.050;8.690;2023-03-14T11:37:41;9.00;99.90
22908;DHT22;11620;50.050;8.690;2023-03-14T11:40:29;8.90;99.90
22908;DHT22;11620;50.050;8.690;2023-03-14T11:43:39;8.90;99.90
22908;DHT22;11620;50.050;8.690;2023-03-14T11:46:36;9.00;99.90
22908;DHT22;11620;50.050;8.690;2023-03-14T11:49:55;9.00;99.90
22908;DHT22;11620;50.050;8.690;2023-03-14T11:52:53;9.00;99.90
22908;DHT22;11620;50.050;8.690;2023-03-14T11:55:42;9.10;99.90
22908;DHT22;11620;50.050;8.690;2023-03-14T11:58:34;9.10;99.90
22908;DHT22;11620;50.050;8.690;2023-03-14T12:01:31;9.00;99.90
22908;DHT22;11620;50.050;8.690;2023-03-14T12:04:40;9.00;99.90
22908;DHT22;11620;50.050;8.690;2023-03-14T12:07:43;9.00;99.90
22908;DHT22;11620;50.050;8.690;2023-03-14T12:10:46;9.10;99.90
22908;DHT22;11620;50.050;8.690;2023-03-14T12:13:37;9.00;99.90
22908;DHT22;11620;50.050;8.690;2023-03-14T12:20:00;8.90;99.90
22908;DHT22;11620;50.050;8.690;2023-03-14T12:22:25;8.60;99.90
22908;DHT22;11620;50.050;8.690;2023-03-14T12:25:19;8.20;99.90
22908;DHT22;11620;50.050;8.690;2023-03-14T12:28:32;8.10;99.90
22908;DHT22;11620;50.050;8.690;2023-03-14T12:43:00;8.30;99.90
22908;DHT22;11620;50.050;8.690;2023-03-14T12:51:43;8.40;99.90
22908;DHT22;11620;50.050;8.690;2023-03-14T12:54:46;8.60;99.90
22908;DHT22;11620;50.050;8.690;2023-03-14T12:58:16;8.70;99.90
22908;DHT22;11620;50.050;8.690;2023-03-14T13:01:18;8.60;99.90
22908;DHT22;11620;50.050;8.690;2023-03-14T13:04:10;8.60;99.90
22908;DHT22;11620;50.050;8.690;2023-03-14T13:06:58;8.70;99.90
22908;DHT22;11620;50.050;8.690;2023-03-14T13:13:19;8.80;99.90
22908;DHT22;11620;50.050;8.690;2023-03-14T13:16:12;8.80;99.90
22908;DHT22;11620;50.050;8.690;2023-03-14T13:19:03;8.70;99.90
22908;DHT22;11620;50.050;8.690;2023-03-14T13:22:01;8.50;99.90
22908;DHT22;11620;50.050;8.690;2023-03-14T13:24:48;8.40;99.90
22908;DHT22;11620;50.050;8.690;2023-03-14T13:27:35;8.30;99.90
22908;DHT22;11620;50.050;8.690;2023-03-14T13:30:27;8.30;99.90
22908;DHT22;11620;50.050;8.690;2023-03-14T13:33:20;8.40;99.90
22908;DHT22;11620;50.050;8.690;2023-03-14T13:36:06;8.50;99.90
22908;DHT22;11620;50.050;8.690;2023-03-14T13:39:00;8.50;99.90
22908;DHT22;11620;50.050;8.690;2023-03-14T13:41:47;8.50;99.90
22908;DHT22;11620;50.050;8.690;2023-03-14T13:44:39;8.50;99.90
22908;DHT22;11620;50.050;8.690;2023-03-14T13:47:26;8.60;99.90
22908;DHT22;11620;50.050;8.690;2023-03-14T13:50:15;8.70;99.90
22908;DHT22;11620;50.050;8.690;2023-03-14T13:53:02;8.70;99.90
22908;DHT22;11620;50.050;8.690;2023-03-14T13:55:50;8.80;99.90
22908;DHT22;11620;50.050;8.690;2023-03-14T13:58:37;8.40;99.90
22908;DHT22;11620;50.050;8.690;2023-03-14T14:01:33;8.40;99.90
22908;DHT22;11620;50.050;8.690;2023-03-14T14:04:22;8.30;99.90
22908;DHT22;11620;50.050;8.690;2023-03-14T14:07:13;8.30;99.90
22908;DHT22;11620;50.050;8.690;2023-03-14T14:10:02;8.00;99.90
22908;DHT22;11620;50.050;8.690;2023-03-14T14:12:55;7.70;99.90
22908;DHT22;11620;50.050;8.690;2023-03-14T14:15:46;7.60;99.90
22908;DHT22;11620;50.050;8.690;2023-03-14T14:18:34;7.60;99.90
22908;DHT22;11620;50.050;8.690;2023-03-14T14:21:21;7.40;99.90
22908;DHT22;11620;50.050;8.690;2023-03-14T14:24:17;7.30;99.90
22908;DHT22;11620;50.050;8.690;2023-03-14T14:27:50;7.30;99.90
22908;DHT22;11620;50.050;8.690;2023-03-14T14:30:31;7.20;99.90
22908;DHT22;11620;50.050;8.690;2023-03-14T14:33:20;7.20;99.90
22908;DHT22;11620;50.050;8.690;2023-03-14T14:39:25;7.20;99.90
22908;DHT22;11620;50.050;8.690;2023-03-14T14:42:16;7.10;99.90
22908;DHT22;11620;50.050;8.690;2023-03-14T14:45:05;7.00;99.90
22908;DHT22;11620;50.050;8.690;2023-03-14T14:48:06;6.90;99.90
22908;DHT22;11620;50.050;8.690;2023-03-14T14:51:04;6.90;99.90
22908;DHT22;11620;50.050;8.690;2023-03-14T14:54:04;6.80;99.90
22908;DHT22;11620;50.050;8.690;2023-03-14T14:56:52;6.70;99.90
22908;DHT22;11620;50.050;8.690;2023-03-14T14:59:42;6.70;99.90
22908;DHT22;11620;50.050;8.690;2023-03-14T15:02:35;6.60;99.90
22908;DHT22;11620;50.050;8.690;2023-03-14T15:05:24;6.40;99.90
22908;DHT22;11620;50.050;8.690;2023-03-14T15:08:11;6.30;99.90
22908;DHT22;11620;50.050;8.690;2023-03-14T15:10:57;6.20;99.90
22908;DHT22;11620;50.050;8.690;2023-03-14T15:13:44;6.20;99.90
22908;DHT22;11620;50.050;8.690;2023-03-14T15:16:31;6.30;99.90
22908;DHT22;11620;50.050;8.690;2023-03-14T15:19:21;6.30;99.90
22908;DHT22;11620;50.050;8.690;2023-03-14T15:22:12;6.20;99.90
22908;DHT22;11620;50.050;8.690;2023-03-14T15:25:00;6.20;99.90
22908;DHT22;11620;50.050;8.690;2023-03-14T15:27:46;6.30;99.90
22908;DHT22;11620;50.050;8.690;2023-03-14T15:30:33;6.10;99.90
22908;DHT22;11620;50.050;8.690;2023-03-14T15:33:20;6.10;99.90
22908;DHT22;11620;50.050;8.690;2023-03-14T15:36:19;6.00;99.90
22908;DHT22;11620;50.050;8.690;2023-03-14T15:39:06;6.00;99.90
22908;DHT22;11620;50.050;8.690;2023-03-14T15:41:53;5.80;99.90
22908;DHT22;11620;50.050;8.690;2023-03-14T15:44:39;5.90;99.90
22908;DHT22;11620;50.050;8.690;2023-03-14T15:47:25;5.90;99.90
22908;DHT22;11620;50.050;8.690;2023-03-14T15:50:13;5.90;99.90
22908;DHT22;11620;50.050;8.690;2023-03-14T15:52:59;5.80;99.90
22908;DHT22;11620;50.050;8.690;2023-03-14T15:55:46;5.90;99.90
22908;DHT22;11620;50.050;8.690;2023-03-14T15:58:33;5.90;99.90
22908;DHT22;11620;50.050;8.690;2023-03-14T16:01:20;5.80;99.90
22908;DHT22;11620;50.050;8.690;2023-03-14T16:04:06;5.90;99.90
22908;DHT22;11620;50.050;8.690;2023-03-14T16:06:52;5.90;99.90
22908;DHT22;11620;50.050;8.690;2023-03-14T16:09:39;5.90;99.90
22908;DHT22;11620;50.050;8.690;2023-03-14T16:12:25;5.80;99.90
22908;DHT22;11620;50.050;8.690;2023-03-14T16:15:10;5.70;99.90
22908;DHT22;11620;50.050;8.690;2023-03-14T16:17:55;5.70;99.90
22908;DHT22;11620;50.050;8.690;2023-03-14T16:20:41;5.60;99.90
22908;DHT22;11620;50.050;8.690;2023-03-14T16:23:28;5.50;99.90
22908;DHT22;11620;50.050;8.690;2023-03-14T16:26:18;5.50;99.90
22908;DHT22;11620;50.050;8.690;2023-03-14T16:29:04;5.30;99.90
22908;DHT22;11620;50.050;8.690;2023-03-14T16:31:51;5.40;99.90
22908;DHT22;11620;50.050;8.690;2023-03-14T16:34:38;5.30;99.90
22908;DHT22;11620;50.050;8.690;2023-03-14T16:37:25;5.20;99.90
22908;DHT22;11620;50.050;8.690;2023-03-14T16:40:12;5.20;99.90
22908;DHT22;11620;50.050;8.690;2023-03-14T16:42:59;5.20;99.90
22908;DHT22;11620;50.050;8.690;2023-03-14T16:45:45;5.00;99.90
22908;DHT22;11620;50.050;8.690;2023-03-14T16:48:32;5.20;99.90
22908;DHT22;11620;50.050;8.690;2023-03-14T16:51:19;5.20;99.90
22908;DHT22;11620;50.050;8.690;2023-03-14T16:54:05;5.40;99.90
22908;DHT22;11620;50.050;8.690;2023-03-14T16:56:52;5.30;99.90
22908;DHT22;11620;50.050;8.690;2023-03-14T16:59:38;5.40;99.90
22908;DHT22;11620;50.050;8.690;2023-03-14T17:02:25;5.40;99.90
22908;DHT22;11620;50.050;8.690;2023-03-14T17:05:11;5.40;99.90
22908;DHT22;11620;50.050;8.690;2023-03-14T17:07:57;5.40;99.90
22908;DHT22;11620;50.050;8.690;2023-03-14T17:10:44;5.30;99.90
22908;DHT22;11620;50.050;8.690;2023-03-14T17:13:30;5.30;99.90
22908;DHT22;11620;50.050;8.690;2023-03-14T17:16:17;5.30;99.90
22908;DHT22;11620;50.050;8.690;2023-03-14T17:19:04;5.30;99.90
22908;DHT22;11620;50.050;8.690;2023-03-14T17:21:50;5.30;99.90
22908;DHT22;11620;50.050;8.690;2023-03-14T17:24:37;5.30;99.90
22908;DHT22;11620;50.050;8.690;2023-03-14T17:27:24;5.10;99.90
22908;DHT22;11620;50.050;8.690;2023-03-14T17:30:11;4.90;99.90
22908;DHT22;11620;50.050;8.690;2023-03-14T17:33:00;4.80;99.90
22908;DHT22;11620;50.050;8.690;2023-03-14T17:35:47;4.90;99.90
22908;DHT22;11620;50.050;8.690;2023-03-14T17:38:35;4.90;99.90
22908;DHT22;11620;50.050;8.690;2023-03-14T17:41:21;5.00;99.90
22908;DHT22;11620;50.050;8.690;2023-03-14T17:44:07;5.00;99.90
22908;DHT22;11620;50.050;8.690;2023-03-14T17:46:55;5.00;99.90
22908;DHT22;11620;50.050;8.690;2023-03-14T17:49:41;5.00;99.90
22908;DHT22;11620;50.050;8.690;2023-03-14T17:52:28;5.10;99.90
22908;DHT22;11620;50.050;8.690;2023-03-14T17:55:14;5.00;99.90
22908;DHT22;11620;50.050;8.690;2023-03-14T17:58:00;5.00;99.90
22908;DHT22;11620;50.050;8.690;2023-03-14T18:00:47;5.10;99.90
22908;DHT22;11620;50.050;8.690;2023-03-14T18:03:34;5.10;99.90
22908;DHT22;11620;50.050;8.690;2023-03-14T18:06:21;5.00;99.90
22908;DHT22;11620;50.050;8.690;2023-03-14T18:09:08;5.10;99.90
22908;DHT22;11620;50.050;8.690;2023-03-14T18:11:54;5.00;99.90
22908;DHT22;11620;50.050;8.690;2023-03-14T18:14:41;4.90;99.90
22908;DHT22;11620;50.050;8.690;2023-03-14T18:17:29;4.80;99.90
22908;DHT22;11620;50.050;8.690;2023-03-14T18:20:16;4.80;99.90
22908;DHT22;11620;50.050;8.690;2023-03-14T18:23:02;4.80;99.90
22908;DHT22;11620;50.050;8.690;2023-03-14T18:25:50;4.70;99.90
22908;DHT22;11620;50.050;8.690;2023-03-14T18:28:36;4.50;99.90
22908;DHT22;11620;50.050;8.690;2023-03-14T18:31:23;4.50;99.90
22908;DHT22;11620;50.050;8.690;2023-03-14T18:34:11;4.40;99.90
22908;DHT22;11620;50.050;8.690;2023-03-14T18:36:57;4.50;99.90
22908;DHT22;11620;50.050;8.690;2023-03-14T18:39:44;4.40;99.90
22908;DHT22;11620;50.050;8.690;2023-03-14T18:42:30;4.50;99.90
22908;DHT22;11620;50.050;8.690;2023-03-14T18:45:16;4.50;99.90
22908;DHT22;11620;50.050;8.690;2023-03-14T18:48:03;4.60;99.90
22908;DHT22;11620;50.050;8.690;2023-03-14T18:50:50;4.60;99.90
22908;DHT22;11620;50.050;8.690;2023-03-14T18:53:37;4.70;99.90
22908;DHT22;11620;50.050;8.690;2023-03-14T18:56:24;4.70;99.90
22908;DHT22;11620;50.050;8.690;2023-03-14T18:59:11;4.70;99.90
22908;DHT22;11620;50.050;8.690;2023-03-14T19:01:58;4.70;99.90
22908;DHT22;11620;50.050;8.690;2023-03-14T19:04:44;4.60;99.90
22908;DHT22;11620;50.050;8.690;2023-03-14T19:07:31;4.60;99.90